createdAt,value
2023-03-20T00:02:21.801Z,24.20
2023-03-20T00:04:48.537Z,22.27
2023-03-20T00:07:15.344Z,23.90
2023-03-20T00:09:44.572Z,24.00
2023-03-20T00:12:19.567Z,23.42
2023-03-20T00:14:48.860Z,22.33
2023-03-20T00:17:20.473Z,21.75
2023-03-20T00:19:49.664Z,24.25
2023-03-20T00:22:18.917Z,22.47
2023-03-20T00:24:46.059Z,20.92
2023-03-20T00:27:17.660Z,24.13
2023-03-20T00:29:44.850Z,23.90
2023-03-20T00:32:13.460Z,20.33
2023-03-20T00:34:42.666Z,20.05
2023-03-20T00:37:11.731Z,20.17
2023-03-20T00:39:38.651Z,19.83
2023-03-20T00:42:07.583Z,24.75
2023-03-20T00:44:34.235Z,23.38
2023-03-20T00:47:35.605Z,22.38
2023-03-20T00:50:07.813Z,22.95
2023-03-20T00:52:37.461Z,21.50
2023-03-20T00:55:04.496Z,22.70
2023-03-20T00:57:38.382Z,22.17
2023-03-20T01:00:21.357Z,24.88
2023-03-20T01:02:48.140Z,25.63
2023-03-20T01:05:14.843Z,22.13
2023-03-20T01:07:41.558Z,19.50
2023-03-20T01:10:13.913Z,22.55
2023-03-20T01:12:44.357Z,21.35
2023-03-20T01:15:24.060Z,21.80
2023-03-20T01:17:50.862Z,23.60
2023-03-20T01:20:21.573Z,23.55
2023-03-20T01:22:48.729Z,21.15
2023-03-20T01:25:16.145Z,22.48
2023-03-20T01:27:45.362Z,19.83
2023-03-20T01:30:24.300Z,19.38
2023-03-20T01:32:51.607Z,21.83
2023-03-20T01:35:25.646Z,20.55
2023-03-20T01:37:53.083Z,24.15
2023-03-20T01:40:37.726Z,22.63
2023-03-20T01:43:09.084Z,19.35
2023-03-20T01:45:36.810Z,19.10
2023-03-20T01:48:15.606Z,17.50
2023-03-20T01:50:42.734Z,22.20
2023-03-20T01:53:09.826Z,21.35
2023-03-20T01:55:37.752Z,21.90
2023-03-20T01:58:07.479Z,22.00
2023-03-20T02:00:36.541Z,17.55
2023-03-20T02:03:07.019Z,19.00
2023-03-20T02:05:34.896Z,18.63
2023-03-20T02:08:17.912Z,20.08
2023-03-20T02:10:46.595Z,18.15
2023-03-20T02:13:14.160Z,17.45
2023-03-20T02:16:16.864Z,16.48
2023-03-20T02:18:45.104Z,19.30
2023-03-20T02:21:14.980Z,18.80
2023-03-20T02:26:18.282Z,17.13
2023-03-20T02:28:45.997Z,16.05
2023-03-20T02:31:13.087Z,16.90
2023-03-20T02:33:46.251Z,18.05
2023-03-20T02:36:39.353Z,19.08
2023-03-20T02:39:06.545Z,17.60
2023-03-20T02:41:33.620Z,15.02
2023-03-20T02:44:13.130Z,17.42
2023-03-20T02:46:58.768Z,18.50
2023-03-20T02:49:44.732Z,15.93
2023-03-20T02:52:18.064Z,18.20
2023-03-20T02:54:50.959Z,15.75
2023-03-20T02:57:21.055Z,15.90
2023-03-20T02:59:57.036Z,15.98
2023-03-20T03:02:40.341Z,16.27
2023-03-20T03:05:16.335Z,15.73
2023-03-20T03:07:48.182Z,18.13
2023-03-20T03:10:27.224Z,15.25
2023-03-20T03:12:56.747Z,15.23
2023-03-20T03:15:34.948Z,14.38
2023-03-20T03:18:06.392Z,13.88
2023-03-20T03:20:35.482Z,15.60
2023-03-20T03:23:02.980Z,17.27
2023-03-20T03:25:34.879Z,18.08
2023-03-20T03:28:08.345Z,15.80
2023-03-20T03:30:37.806Z,15.55
2023-03-20T03:33:17.106Z,17.10
2023-03-20T03:35:44.922Z,14.73
2023-03-20T03:38:11.987Z,18.15
2023-03-20T03:41:11.542Z,15.38
2023-03-20T03:43:42.271Z,14.88
2023-03-20T03:46:13.053Z,20.27
2023-03-20T03:48:45.910Z,15.55
2023-03-20T03:51:17.873Z,13.88
2023-03-20T03:53:49.454Z,16.85
2023-03-20T03:56:18.253Z,17.65
2023-03-20T03:58:56.711Z,17.90
2023-03-20T04:01:24.362Z,15.75
2023-03-20T04:03:56.205Z,16.00
2023-03-20T04:06:26.308Z,21.70
2023-03-20T04:08:53.398Z,14.55
2023-03-20T04:11:22.300Z,16.08
2023-03-20T04:13:55.036Z,15.45
2023-03-20T04:16:23.570Z,16.35
2023-03-20T04:18:51.237Z,17.67
2023-03-20T04:21:18.733Z,15.85
2023-03-20T04:23:47.639Z,17.95
2023-03-20T04:26:14.641Z,16.63
2023-03-20T04:28:41.575Z,15.48
2023-03-20T04:31:08.336Z,17.98
2023-03-20T04:33:35.004Z,15.57
2023-03-20T04:36:01.853Z,16.63
2023-03-20T04:38:28.599Z,15.45
2023-03-20T04:40:55.421Z,14.63
2023-03-20T04:43:22.090Z,16.90
2023-03-20T04:45:51.854Z,16.40
2023-03-20T04:48:18.620Z,16.92
2023-03-20T04:50:48.289Z,16.40
2023-03-20T04:53:15.467Z,17.52
2023-03-20T04:55:42.121Z,15.98
2023-03-20T04:58:08.768Z,18.67
2023-03-20T05:00:35.526Z,15.35
2023-03-20T05:03:04.540Z,17.25
2023-03-20T05:05:31.486Z,19.65
2023-03-20T05:07:58.192Z,16.58
2023-03-20T05:10:24.882Z,15.57
2023-03-20T05:12:53.820Z,15.88
2023-03-20T05:15:20.503Z,15.88
2023-03-20T05:17:49.901Z,15.40
2023-03-20T05:20:18.325Z,16.10
2023-03-20T05:22:44.998Z,14.98
2023-03-20T05:25:13.800Z,17.73
2023-03-20T05:27:46.364Z,14.98
2023-03-20T05:30:16.741Z,17.23
2023-03-20T05:32:45.893Z,18.33
2023-03-20T05:35:12.704Z,16.73
2023-03-20T05:37:41.669Z,20.45
2023-03-20T05:40:11.133Z,20.35
2023-03-20T05:42:40.031Z,17.73
2023-03-20T05:45:09.563Z,18.63
2023-03-20T05:47:36.256Z,14.68
2023-03-20T05:50:03.838Z,19.98
2023-03-20T05:52:30.589Z,17.48
2023-03-20T05:54:57.259Z,16.52
2023-03-20T05:57:24.551Z,19.20
2023-03-20T05:59:53.612Z,16.38
2023-03-20T06:02:20.355Z,16.40
2023-03-20T06:04:47.106Z,19.92
2023-03-20T06:07:14.070Z,17.42
2023-03-20T06:09:40.892Z,17.45
2023-03-20T06:12:08.002Z,19.02
2023-03-20T06:14:34.758Z,17.27
2023-03-20T06:17:03.899Z,17.33
2023-03-20T06:19:30.593Z,17.13
2023-03-20T06:21:59.677Z,21.05
2023-03-20T06:24:26.745Z,17.60
2023-03-20T06:26:53.452Z,18.77
2023-03-20T06:29:20.598Z,17.25
2023-03-20T06:31:47.285Z,17.00
2023-03-20T06:34:14.336Z,17.45
2023-03-20T06:36:43.302Z,21.38
2023-03-20T06:39:14.130Z,18.77
2023-03-20T06:41:43.378Z,19.23
2023-03-20T06:44:10.493Z,18.38
2023-03-20T06:46:37.324Z,17.42
2023-03-20T06:49:06.297Z,20.00
2023-03-20T06:51:35.466Z,17.23
2023-03-20T06:54:02.389Z,17.05
2023-03-20T06:56:29.170Z,17.33
2023-03-20T06:58:58.228Z,16.55
2023-03-20T07:01:24.980Z,17.17
2023-03-20T07:03:54.920Z,16.67
2023-03-20T07:08:51.460Z,18.17
2023-03-20T07:13:52.409Z,15.27
2023-03-20T07:16:19.125Z,18.00
2023-03-20T07:18:48.194Z,17.13
2023-03-20T07:21:20.990Z,14.17
2023-03-20T07:23:47.808Z,16.23
2023-03-20T07:26:14.826Z,17.08
2023-03-20T07:28:41.484Z,18.95
2023-03-20T07:31:18.547Z,14.43
2023-03-20T07:33:47.444Z,14.63
2023-03-20T07:36:14.166Z,16.58
2023-03-20T07:38:40.835Z,14.93
2023-03-20T07:41:09.785Z,19.27
2023-03-20T07:43:36.482Z,14.18
2023-03-20T07:46:05.505Z,15.65
2023-03-20T07:48:32.234Z,15.27
2023-03-20T07:51:01.107Z,11.70
2023-03-20T07:53:28.019Z,15.32
2023-03-20T07:55:54.744Z,12.50
2023-03-20T07:58:23.909Z,11.18
2023-03-20T08:00:50.693Z,14.32
2023-03-20T08:03:17.514Z,11.23
2023-03-20T08:05:47.093Z,10.23
2023-03-20T08:08:16.682Z,9.95
2023-03-20T08:10:43.515Z,10.23
2023-03-20T08:13:10.430Z,11.75
2023-03-20T08:15:37.395Z,10.73
2023-03-20T08:18:04.396Z,8.75
2023-03-20T08:20:31.769Z,9.43
2023-03-20T08:22:58.482Z,9.07
2023-03-20T08:25:25.240Z,11.48
2023-03-20T08:27:54.134Z,8.68
2023-03-20T08:30:20.969Z,10.57
2023-03-20T08:32:47.765Z,9.05
2023-03-20T08:35:32.098Z,8.25
2023-03-20T08:38:03.940Z,9.75
2023-03-20T08:40:31.319Z,9.27
2023-03-20T08:42:58.273Z,7.40
2023-03-20T08:45:27.350Z,8.57
2023-03-20T08:47:56.651Z,9.13
2023-03-20T08:50:23.500Z,11.15
2023-03-20T08:52:50.281Z,7.70
2023-03-20T08:55:19.930Z,8.27
2023-03-20T08:57:47.493Z,7.40
2023-03-20T09:00:15.681Z,8.07
2023-03-20T09:02:43.370Z,5.93
2023-03-20T09:05:13.230Z,6.82
2023-03-20T09:10:07.459Z,4.88
2023-03-20T09:12:34.375Z,5.72
2023-03-20T09:15:01.385Z,5.25
2023-03-20T09:17:28.431Z,6.57
2023-03-20T09:19:55.231Z,5.88
2023-03-20T09:22:21.907Z,7.05
2023-03-20T09:24:48.608Z,5.57
2023-03-20T09:27:15.381Z,4.35
2023-03-20T09:29:43.311Z,4.88
2023-03-20T09:32:14.122Z,5.90
2023-03-20T09:34:40.818Z,5.47
2023-03-20T09:37:07.552Z,5.43
2023-03-20T09:39:37.086Z,5.95
2023-03-20T09:42:25.029Z,6.68
2023-03-20T09:45:12.044Z,5.78
2023-03-20T09:47:43.031Z,5.40
2023-03-20T09:50:28.421Z,6.80
2023-03-20T09:53:33.916Z,6.53
2023-03-20T09:56:01.566Z,6.40
2023-03-20T09:58:34.309Z,4.75
2023-03-20T10:01:04.804Z,3.95
2023-03-20T10:03:53.945Z,7.40
2023-03-20T10:06:20.717Z,6.95
2023-03-20T10:08:47.730Z,9.43
2023-03-20T10:12:08.277Z,5.20
2023-03-20T10:14:59.448Z,6.88
2023-03-20T10:18:00.564Z,8.48
2023-03-20T10:20:27.206Z,4.43
2023-03-20T10:22:58.665Z,5.38
2023-03-20T10:25:44.497Z,5.63
2023-03-20T10:28:25.974Z,8.13
2023-03-20T10:31:17.352Z,9.45
2023-03-20T10:34:04.903Z,6.40
2023-03-20T10:36:51.035Z,5.05
2023-03-20T10:39:24.026Z,9.38
2023-03-20T10:41:56.437Z,6.28
2023-03-20T10:44:40.444Z,5.78
2023-03-20T10:47:14.523Z,4.88
2023-03-20T10:49:51.315Z,5.65
2023-03-20T10:52:31.061Z,7.57
2023-03-20T10:55:06.611Z,5.63
2023-03-20T10:57:42.005Z,6.20
2023-03-20T11:00:22.967Z,8.07
2023-03-20T11:02:49.840Z,5.55
2023-03-20T11:05:36.970Z,4.97
2023-03-20T11:08:08.850Z,5.35
2023-03-20T11:10:40.034Z,9.77
2023-03-20T11:13:46.917Z,6.00
2023-03-20T11:16:23.264Z,5.47
2023-03-20T11:18:52.407Z,5.90
2023-03-20T11:21:31.275Z,5.28
2023-03-20T11:23:58.106Z,7.18
2023-03-20T11:26:42.078Z,6.60
2023-03-20T11:29:24.979Z,5.47
2023-03-20T11:31:52.035Z,5.65
2023-03-20T11:34:26.614Z,6.68
2023-03-20T11:37:12.661Z,5.50
2023-03-20T11:39:56.220Z,6.35
2023-03-20T11:42:25.696Z,4.50
2023-03-20T11:45:00.997Z,4.28
2023-03-20T11:47:34.607Z,5.72
2023-03-20T11:50:04.413Z,5.10
2023-03-20T11:52:37.108Z,4.13
2023-03-20T11:55:22.368Z,7.28
2023-03-20T11:57:49.579Z,6.97
2023-03-20T12:00:23.298Z,7.40
2023-03-20T12:02:50.682Z,5.88
2023-03-20T12:05:30.064Z,3.33
2023-03-20T12:08:02.944Z,5.15
2023-03-20T12:10:39.438Z,4.55
2023-03-20T12:13:29.691Z,3.50
2023-03-20T12:16:02.800Z,3.65
2023-03-20T12:18:53.465Z,3.35
2023-03-20T12:21:28.394Z,2.47
2023-03-20T12:24:17.425Z,4.82
2023-03-20T12:29:50.200Z,5.25
2023-03-20T12:32:28.088Z,2.38
2023-03-20T12:35:11.272Z,4.82
2023-03-20T12:37:38.243Z,4.38
2023-03-20T12:40:05.650Z,4.60
2023-03-20T12:42:38.492Z,3.67
2023-03-20T12:45:09.335Z,3.28
2023-03-20T12:48:08.552Z,3.15
2023-03-20T12:50:46.308Z,2.08
2023-03-20T12:53:39.295Z,5.43
2023-03-20T12:56:44.430Z,3.25
2023-03-20T12:59:32.547Z,2.90
2023-03-20T13:02:04.244Z,3.72
2023-03-20T13:04:48.865Z,5.32
2023-03-20T13:07:19.790Z,4.65
2023-03-20T13:10:06.799Z,4.40
2023-03-20T13:12:36.173Z,2.65
2023-03-20T13:15:40.443Z,6.97
2023-03-20T13:18:19.158Z,2.15
2023-03-20T13:20:50.747Z,2.58
2023-03-20T13:23:30.856Z,2.35
2023-03-20T13:26:22.029Z,1.83
2023-03-20T13:29:10.650Z,2.10
2023-03-20T13:31:55.355Z,2.97
2023-03-20T13:34:54.463Z,2.97
2023-03-20T13:37:33.301Z,3.33
2023-03-20T13:40:28.497Z,3.78
2023-03-20T13:43:18.093Z,6.60
2023-03-20T13:45:44.846Z,2.20
2023-03-20T13:48:19.746Z,2.86
2023-03-20T13:50:59.760Z,4.63
2023-03-20T13:53:37.595Z,2.08
2023-03-20T13:56:28.618Z,3.97
2023-03-20T13:59:19.214Z,6.55
2023-03-20T14:02:00.888Z,3.58
2023-03-20T14:04:29.253Z,3.13
2023-03-20T14:06:58.366Z,4.50
2023-03-20T14:09:30.925Z,5.00
2023-03-20T14:12:07.237Z,4.40
2023-03-20T14:14:50.680Z,3.40
2023-03-20T14:17:27.188Z,3.20
2023-03-20T14:19:58.315Z,6.07
2023-03-20T14:22:33.960Z,4.45
2023-03-20T14:25:08.593Z,4.10
2023-03-20T14:27:52.722Z,2.17
2023-03-20T14:30:34.055Z,3.40
2023-03-20T14:33:23.326Z,3.60
2023-03-20T14:35:51.827Z,2.45
2023-03-20T14:38:30.742Z,4.75
2023-03-20T14:41:16.906Z,2.85
2023-03-20T14:44:05.406Z,5.78
2023-03-20T14:46:37.986Z,12.00
2023-03-20T14:49:54.429Z,4.68
2023-03-20T14:52:36.148Z,2.60
2023-03-20T14:55:17.881Z,4.35
2023-03-20T14:57:55.941Z,4.63
2023-03-20T15:00:27.265Z,4.97
2023-03-20T15:03:02.189Z,4.82
2023-03-20T15:05:32.790Z,3.83
2023-03-20T15:08:07.294Z,5.28
2023-03-20T15:10:37.326Z,4.35
2023-03-20T15:13:08.089Z,2.90
2023-03-20T15:15:34.846Z,10.60
2023-03-20T15:18:21.657Z,5.03
2023-03-20T15:20:49.283Z,5.43
2023-03-20T15:23:16.123Z,4.43
2023-03-20T15:25:46.981Z,4.80
2023-03-20T15:28:25.610Z,4.85
2023-03-20T15:30:57.203Z,2.50
2023-03-20T15:33:23.888Z,3.10
2023-03-20T15:35:55.726Z,4.85
2023-03-20T15:38:28.626Z,3.55
2023-03-20T15:40:55.660Z,3.10
2023-03-20T15:43:24.617Z,3.70
2023-03-20T15:46:02.933Z,4.23
2023-03-20T15:48:33.486Z,3.72
2023-03-20T15:51:04.971Z,4.20
2023-03-20T15:53:33.131Z,4.63
2023-03-20T15:56:17.163Z,5.85
2023-03-20T15:58:45.243Z,3.78
2023-03-20T16:01:17.806Z,3.75
2023-03-20T16:03:45.140Z,6.93
2023-03-20T16:06:17.775Z,4.10
2023-03-20T16:08:46.862Z,5.18
2023-03-20T16:11:17.302Z,4.07
2023-03-20T16:13:53.771Z,4.50
2023-03-20T16:16:24.723Z,4.43
2023-03-20T16:18:51.947Z,2.67
2023-03-20T16:21:20.476Z,3.38
2023-03-20T16:23:50.107Z,3.60
2023-03-20T16:26:21.882Z,3.25
2023-03-20T16:28:56.512Z,4.75
2023-03-20T16:31:30.331Z,6.97
2023-03-20T16:34:07.634Z,4.97
2023-03-20T16:36:38.721Z,6.63
2023-03-20T16:39:17.889Z,3.22
2023-03-20T16:41:46.188Z,4.88
2023-03-20T16:44:23.288Z,4.32
2023-03-20T16:46:57.979Z,10.13
2023-03-20T16:49:32.119Z,4.65
2023-03-20T16:52:02.010Z,5.75
2023-03-20T16:56:58.086Z,4.03
2023-03-20T16:59:26.030Z,7.60
2023-03-20T17:01:58.492Z,5.60
2023-03-20T17:04:39.454Z,4.07
2023-03-20T17:07:18.348Z,2.65
2023-03-20T17:10:15.833Z,3.53
2023-03-20T17:12:44.705Z,2.28
2023-03-20T17:15:16.814Z,5.70
2023-03-20T17:17:44.609Z,4.40
2023-03-20T17:20:26.555Z,7.60
2023-03-20T17:22:54.018Z,3.78
2023-03-20T17:25:21.024Z,4.93
2023-03-20T17:27:48.170Z,5.93
2023-03-20T17:30:23.086Z,3.58
2023-03-20T17:32:49.978Z,3.80
2023-03-20T17:35:17.364Z,4.05
2023-03-20T17:37:44.168Z,6.82
2023-03-20T17:40:20.217Z,3.95
2023-03-20T17:42:49.618Z,3.35
2023-03-20T17:45:20.551Z,5.07
2023-03-20T17:47:51.503Z,5.30
2023-03-20T17:50:25.491Z,2.53
2023-03-20T17:52:52.324Z,3.33
2023-03-20T17:55:21.275Z,4.30
2023-03-20T17:57:48.762Z,5.10
2023-03-20T18:00:20.336Z,4.68
2023-03-20T18:02:47.482Z,4.47
2023-03-20T18:05:19.271Z,4.65
2023-03-20T18:07:46.033Z,5.05
2023-03-20T18:10:32.353Z,3.78
2023-03-20T18:12:59.634Z,4.72
2023-03-20T18:15:29.092Z,3.05
2023-03-20T18:17:55.897Z,3.45
2023-03-20T18:20:22.540Z,4.30
2023-03-20T18:22:52.748Z,2.97
2023-03-20T18:25:22.373Z,4.63
2023-03-20T18:27:49.716Z,4.82
2023-03-20T18:30:26.508Z,4.78
2023-03-20T18:32:53.353Z,9.10
2023-03-20T18:35:20.220Z,6.38
2023-03-20T18:37:49.135Z,5.60
2023-03-20T18:40:15.775Z,5.78
2023-03-20T18:42:42.490Z,6.82
2023-03-20T18:45:09.879Z,6.15
2023-03-20T18:47:36.604Z,4.60
2023-03-20T18:50:08.312Z,5.40
2023-03-20T18:52:35.011Z,9.50
2023-03-20T18:55:01.705Z,3.97
2023-03-20T18:57:30.754Z,4.65
2023-03-20T18:59:57.585Z,2.93
2023-03-20T19:02:24.313Z,2.45
2023-03-20T19:04:50.967Z,4.97
2023-03-20T19:07:17.907Z,3.10
2023-03-20T19:09:44.670Z,4.63
2023-03-20T19:12:14.035Z,7.40
2023-03-20T19:14:41.089Z,6.15
2023-03-20T19:17:10.284Z,5.20
2023-03-20T19:19:37.005Z,4.88
2023-03-20T19:22:05.060Z,5.45
2023-03-20T19:24:32.198Z,3.08
2023-03-20T19:26:59.510Z,5.00
2023-03-20T19:29:28.136Z,3.60
2023-03-20T19:31:59.786Z,3.20
2023-03-20T19:35:10.906Z,4.47
2023-03-20T19:37:14.662Z,3.28
2023-03-20T19:39:41.490Z,4.18
2023-03-20T19:42:30.322Z,3.95
2023-03-20T19:44:55.148Z,5.35
2023-03-20T19:47:24.200Z,4.45
2023-03-20T19:49:51.394Z,4.97
2023-03-20T19:52:28.682Z,3.38
2023-03-20T19:55:03.132Z,2.97
2023-03-20T19:57:30.281Z,3.67
2023-03-20T20:00:39.621Z,4.38
2023-03-20T20:02:44.263Z,2.70
2023-03-20T20:05:22.571Z,5.30
2023-03-20T20:08:24.331Z,7.78
2023-03-20T20:10:45.284Z,6.18
2023-03-20T20:13:16.697Z,4.38
2023-03-20T20:15:44.936Z,5.57
2023-03-20T20:18:13.060Z,3.50
2023-03-20T20:21:27.367Z,6.97
2023-03-20T20:23:31.323Z,3.33
2023-03-20T20:25:58.830Z,6.72
2023-03-20T20:28:28.898Z,6.25
2023-03-20T20:30:57.156Z,3.60
2023-03-20T20:33:28.688Z,6.82
2023-03-20T20:36:42.224Z,5.40
2023-03-20T20:38:51.077Z,7.35
2023-03-20T20:41:18.542Z,3.83
2023-03-20T20:44:14.606Z,5.55
2023-03-20T20:46:34.839Z,8.68
2023-03-20T20:49:16.489Z,3.03
2023-03-20T20:51:45.357Z,2.88
2023-03-20T20:54:12.166Z,4.57
2023-03-20T20:56:38.860Z,7.22
2023-03-20T20:59:05.764Z,3.42
2023-03-20T21:01:32.778Z,4.72
2023-03-20T21:04:04.294Z,4.45
2023-03-20T21:07:03.569Z,5.00
2023-03-20T21:09:17.725Z,6.38
2023-03-20T21:11:44.514Z,6.55
2023-03-20T21:14:11.311Z,7.45
2023-03-20T21:16:38.265Z,4.90
2023-03-20T21:19:07.652Z,4.97
2023-03-20T21:21:35.708Z,6.40
2023-03-20T21:24:06.710Z,4.82
2023-03-20T21:26:36.022Z,5.38
2023-03-20T21:29:03.135Z,3.65
2023-03-20T21:31:32.317Z,5.43
2023-03-20T21:33:59.028Z,7.25
2023-03-20T21:36:28.225Z,6.22
2023-03-20T21:39:07.287Z,5.93
2023-03-20T21:41:36.319Z,6.75
2023-03-20T21:44:03.730Z,4.90
2023-03-20T21:52:59.697Z,5.05
2023-03-20T22:01:14.479Z,6.85
2023-03-20T22:03:30.901Z,4.63
2023-03-20T22:07:05.480Z,4.55
2023-03-20T22:12:18.424Z,4.40
2023-03-20T22:20:58.470Z,3.67
2023-03-20T22:29:14.971Z,3.83
2023-03-20T22:42:52.964Z,4.03
2023-03-20T22:45:12.311Z,3.75
2023-03-20T22:47:39.207Z,4.68
2023-03-20T22:50:06.457Z,7.35
2023-03-20T22:52:48.017Z,5.57
2023-03-20T22:55:19.550Z,4.82
2023-03-20T22:58:00.007Z,5.95
2023-03-20T23:00:34.890Z,3.45
2023-03-20T23:03:14.120Z,5.00
2023-03-20T23:05:44.398Z,4.55
2023-03-20T23:08:16.803Z,4.63
2023-03-20T23:10:45.766Z,3.88
2023-03-20T23:13:13.571Z,5.93
2023-03-20T23:15:40.431Z,4.70
2023-03-20T23:18:07.336Z,5.60
2023-03-20T23:20:34.010Z,6.95
2023-03-20T23:23:00.853Z,4.70
2023-03-20T23:25:38.766Z,6.35
2023-03-20T23:28:08.506Z,6.70
2023-03-20T23:30:45.301Z,5.80
2023-03-20T23:33:13.211Z,4.70
2023-03-20T23:35:39.999Z,4.35
2023-03-20T23:38:06.782Z,7.22
2023-03-20T23:40:33.473Z,5.47
2023-03-20T23:43:02.540Z,4.68
2023-03-20T23:45:29.207Z,4.83
2023-03-20T23:47:56.079Z,5.05
2023-03-20T23:50:42.556Z,6.82
2023-03-20T23:53:19.891Z,4.38
2023-03-20T23:55:49.226Z,5.50
2023-03-20T23:58:16.458Z,3.90
